sensor_id;sensor_type;location;lat;lon;timestamp;P1;durP1;ratioP1;P2;durP2;ratioP2
3781;SDS011;6881;49.962;7.718;2023-08-01T00:01:54;4.60;;;3.47;;
3781;SDS011;6881;49.962;7.718;2023-08-01T00:04:19;4.70;;;2.93;;
3781;SDS011;6881;49.962;7.718;2023-08-01T00:06:45;6.93;;;3.03;;
3781;SDS011;6881;49.962;7.718;2023-08-01T00:09:10;6.03;;;3.10;;
3781;SDS011;6881;49.962;7.718;2023-08-01T00:11:35;3.40;;;2.87;;
3781;SDS011;6881;49.962;7.718;2023-08-01T00:14:00;5.13;;;3.20;;
3781;SDS011;6881;49.962;7.718;2023-08-01T00:16:26;4.53;;;3.30;;
3781;SDS011;6881;49.962;7.718;2023-08-01T00:18:52;3.47;;;2.83;;
3781;SDS011;6881;49.962;7.718;2023-08-01T00:21:17;4.43;;;2.77;;
3781;SDS011;6881;49.962;7.718;2023-08-01T00:23:42;4.37;;;3.23;;
3781;SDS011;6881;49.962;7.718;2023-08-01T00:26:07;3.53;;;2.60;;
3781;SDS011;6881;49.962;7.718;2023-08-01T00:28:33;3.30;;;3.00;;
3781;SDS011;6881;49.962;7.718;2023-08-01T00:31:05;2.37;;;2.03;;
3781;SDS011;6881;49.962;7.718;2023-08-01T00:33:31;4.33;;;2.57;;
3781;SDS011;6881;49.962;7.718;2023-08-01T00:35:56;3.87;;;2.57;;
3781;SDS011;6881;49.962;7.718;2023-08-01T00:38:21;3.63;;;3.10;;
3781;SDS011;6881;49.962;7.718;2023-08-01T00:40:47;3.27;;;2.77;;
3781;SDS011;6881;49.962;7.718;2023-08-01T00:43:12;2.43;;;2.00;;
3781;SDS011;6881;49.962;7.718;2023-08-01T00:45:37;2.70;;;2.20;;
3781;SDS011;6881;49.962;7.718;2023-08-01T00:48:03;4.20;;;2.50;;
3781;SDS011;6881;49.962;7.718;2023-08-01T00:50:28;2.30;;;2.07;;
3781;SDS011;6881;49.962;7.718;2023-08-01T00:52:54;3.90;;;2.57;;
3781;SDS011;6881;49.962;7.718;2023-08-01T00:55:19;3.10;;;2.20;;
3781;SDS011;6881;49.962;7.718;2023-08-01T00:57:46;4.57;;;2.63;;
3781;SDS011;6881;49.962;7.718;2023-08-01T01:00:12;2.63;;;2.37;;
3781;SDS011;6881;49.962;7.718;2023-08-01T01:02:37;4.77;;;2.50;;
3781;SDS011;6881;49.962;7.718;2023-08-01T01:05:03;2.30;;;2.10;;
3781;SDS011;6881;49.962;7.718;2023-08-01T01:07:29;3.13;;;2.60;;
3781;SDS011;6881;49.962;7.718;2023-08-01T01:09:54;3.90;;;2.33;;
3781;SDS011;6881;49.962;7.718;2023-08-01T01:12:20;4.23;;;2.97;;
3781;SDS011;6881;49.962;7.718;2023-08-01T01:14:45;5.20;;;2.90;;
3781;SDS011;6881;49.962;7.718;2023-08-01T01:17:11;2.73;;;2.10;;
3781;SDS011;6881;49.962;7.718;2023-08-01T01:19:36;3.30;;;2.67;;
3781;SDS011;6881;49.962;7.718;2023-08-01T01:22:02;3.77;;;2.80;;
3781;SDS011;6881;49.962;7.718;2023-08-01T01:24:29;2.57;;;2.37;;
3781;SDS011;6881;49.962;7.718;2023-08-01T01:26:55;3.00;;;2.40;;
3781;SDS011;6881;49.962;7.718;2023-08-01T01:29:22;3.27;;;2.47;;
3781;SDS011;6881;49.962;7.718;2023-08-01T01:31:48;1.77;;;1.40;;
3781;SDS011;6881;49.962;7.718;2023-08-01T01:34:14;4.47;;;2.33;;
3781;SDS011;6881;49.962;7.718;2023-08-01T01:36:39;3.07;;;1.90;;
3781;SDS011;6881;49.962;7.718;2023-08-01T01:39:05;2.67;;;1.90;;
3781;SDS011;6881;49.962;7.718;2023-08-01T01:41:30;3.43;;;2.57;;
3781;SDS011;6881;49.962;7.718;2023-08-01T01:43:55;3.87;;;1.90;;
3781;SDS011;6881;49.962;7.718;2023-08-01T01:46:21;4.60;;;1.70;;
3781;SDS011;6881;49.962;7.718;2023-08-01T01:48:46;2.20;;;1.57;;
3781;SDS011;6881;49.962;7.718;2023-08-01T01:51:11;2.00;;;1.50;;
3781;SDS011;6881;49.962;7.718;2023-08-01T01:53:36;2.43;;;1.80;;
3781;SDS011;6881;49.962;7.718;2023-08-01T01:56:02;1.63;;;1.50;;
3781;SDS011;6881;49.962;7.718;2023-08-01T01:58:27;1.90;;;1.47;;
3781;SDS011;6881;49.962;7.718;2023-08-01T02:00:52;2.17;;;1.70;;
3781;SDS011;6881;49.962;7.718;2023-08-01T02:03:18;5.70;;;1.90;;
3781;SDS011;6881;49.962;7.718;2023-08-01T02:05:44;3.90;;;1.70;;
3781;SDS011;6881;49.962;7.718;2023-08-01T02:08:09;2.10;;;1.30;;
3781;SDS011;6881;49.962;7.718;2023-08-01T02:10:35;2.00;;;1.37;;
3781;SDS011;6881;49.962;7.718;2023-08-01T02:13:00;2.17;;;1.23;;
3781;SDS011;6881;49.962;7.718;2023-08-01T02:15:25;2.27;;;1.40;;
3781;SDS011;6881;49.962;7.718;2023-08-01T02:17:50;1.73;;;1.10;;
3781;SDS011;6881;49.962;7.718;2023-08-01T02:20:16;1.20;;;0.87;;
3781;SDS011;6881;49.962;7.718;2023-08-01T02:22:41;1.80;;;1.33;;
3781;SDS011;6881;49.962;7.718;2023-08-01T02:25:07;1.27;;;1.10;;
3781;SDS011;6881;49.962;7.718;2023-08-01T02:27:32;1.50;;;0.97;;
3781;SDS011;6881;49.962;7.718;2023-08-01T02:29:57;1.73;;;0.90;;
3781;SDS011;6881;49.962;7.718;2023-08-01T02:32:23;1.80;;;1.20;;
3781;SDS011;6881;49.962;7.718;2023-08-01T02:34:48;1.70;;;1.13;;
3781;SDS011;6881;49.962;7.718;2023-08-01T02:37:13;4.90;;;1.13;;
3781;SDS011;6881;49.962;7.718;2023-08-01T02:39:39;2.40;;;1.10;;
3781;SDS011;6881;49.962;7.718;2023-08-01T02:42:04;1.43;;;0.90;;
3781;SDS011;6881;49.962;7.718;2023-08-01T02:44:29;1.37;;;0.97;;
3781;SDS011;6881;49.962;7.718;2023-08-01T02:46:55;1.30;;;0.70;;
3781;SDS011;6881;49.962;7.718;2023-08-01T02:49:20;1.10;;;0.70;;
3781;SDS011;6881;49.962;7.718;2023-08-01T02:51:45;1.13;;;0.73;;
3781;SDS011;6881;49.962;7.718;2023-08-01T02:54:10;2.00;;;1.27;;
3781;SDS011;6881;49.962;7.718;2023-08-01T02:56:36;1.83;;;1.07;;
3781;SDS011;6881;49.962;7.718;2023-08-01T02:59:06;1.60;;;1.10;;
3781;SDS011;6881;49.962;7.718;2023-08-01T03:01:33;1.30;;;0.90;;
3781;SDS011;6881;49.962;7.718;2023-08-01T03:03:59;1.60;;;1.10;;
3781;SDS011;6881;49.962;7.718;2023-08-01T03:06:24;1.20;;;1.10;;
3781;SDS011;6881;49.962;7.718;2023-08-01T03:08:49;1.20;;;0.73;;
3781;SDS011;6881;49.962;7.718;2023-08-01T03:11:16;2.10;;;0.83;;
3781;SDS011;6881;49.962;7.718;2023-08-01T03:13:41;2.30;;;0.90;;
3781;SDS011;6881;49.962;7.718;2023-08-01T03:16:06;1.17;;;0.90;;
3781;SDS011;6881;49.962;7.718;2023-08-01T03:18:32;1.33;;;0.67;;
3781;SDS011;6881;49.962;7.718;2023-08-01T03:20:57;2.63;;;0.63;;
3781;SDS011;6881;49.962;7.718;2023-08-01T03:23:22;2.00;;;0.90;;
3781;SDS011;6881;49.962;7.718;2023-08-01T03:25:47;2.20;;;0.63;;
3781;SDS011;6881;49.962;7.718;2023-08-01T03:28:13;1.30;;;0.70;;
3781;SDS011;6881;49.962;7.718;2023-08-01T03:30:39;1.17;;;0.60;;
3781;SDS011;6881;49.962;7.718;2023-08-01T03:33:04;1.07;;;0.63;;
3781;SDS011;6881;49.962;7.718;2023-08-01T03:35:29;1.53;;;0.90;;
3781;SDS011;6881;49.962;7.718;2023-08-01T03:37:55;1.80;;;0.50;;
3781;SDS011;6881;49.962;7.718;2023-08-01T03:40:20;1.20;;;0.73;;
3781;SDS011;6881;49.962;7.718;2023-08-01T03:42:46;2.60;;;0.67;;
3781;SDS011;6881;49.962;7.718;2023-08-01T03:45:11;1.27;;;0.70;;
3781;SDS011;6881;49.962;7.718;2023-08-01T03:47:36;1.40;;;0.90;;
3781;SDS011;6881;49.962;7.718;2023-08-01T03:50:02;1.50;;;0.97;;
3781;SDS011;6881;49.962;7.718;2023-08-01T03:52:28;1.73;;;1.10;;
3781;SDS011;6881;49.962;7.718;2023-08-01T03:54:54;1.43;;;0.97;;
3781;SDS011;6881;49.962;7.718;2023-08-01T03:57:19;1.43;;;1.20;;
3781;SDS011;6881;49.962;7.718;2023-08-01T03:59:46;1.50;;;1.10;;
3781;SDS011;6881;49.962;7.718;2023-08-01T04:02:11;1.17;;;0.83;;
3781;SDS011;6881;49.962;7.718;2023-08-01T04:04:36;1.13;;;1.03;;
3781;SDS011;6881;49.962;7.718;2023-08-01T04:07:02;1.77;;;1.10;;
3781;SDS011;6881;49.962;7.718;2023-08-01T04:09:27;2.00;;;1.30;;
3781;SDS011;6881;49.962;7.718;2023-08-01T04:11:52;1.30;;;1.00;;
3781;SDS011;6881;49.962;7.718;2023-08-01T04:14:18;1.10;;;0.70;;
3781;SDS011;6881;49.962;7.718;2023-08-01T04:16:43;1.60;;;0.80;;
3781;SDS011;6881;49.962;7.718;2023-08-01T04:19:09;1.33;;;0.90;;
3781;SDS011;6881;49.962;7.718;2023-08-01T04:21:34;1.50;;;0.97;;
3781;SDS011;6881;49.962;7.718;2023-08-01T04:24:00;1.70;;;0.60;;
3781;SDS011;6881;49.962;7.718;2023-08-01T04:26:25;1.23;;;0.80;;
3781;SDS011;6881;49.962;7.718;2023-08-01T04:28:50;1.33;;;1.07;;
3781;SDS011;6881;49.962;7.718;2023-08-01T04:31:16;1.40;;;0.63;;
3781;SDS011;6881;49.962;7.718;2023-08-01T04:33:41;1.33;;;0.60;;
3781;SDS011;6881;49.962;7.718;2023-08-01T04:36:07;1.70;;;0.80;;
3781;SDS011;6881;49.962;7.718;2023-08-01T04:38:33;1.47;;;0.87;;
3781;SDS011;6881;49.962;7.718;2023-08-01T04:40:58;1.20;;;0.83;;
3781;SDS011;6881;49.962;7.718;2023-08-01T04:43:23;1.10;;;0.70;;
3781;SDS011;6881;49.962;7.718;2023-08-01T04:45:49;1.30;;;0.60;;
3781;SDS011;6881;49.962;7.718;2023-08-01T04:48:14;1.20;;;0.70;;
3781;SDS011;6881;49.962;7.718;2023-08-01T04:50:39;1.83;;;1.00;;
3781;SDS011;6881;49.962;7.718;2023-08-01T04:53:04;1.90;;;0.60;;
3781;SDS011;6881;49.962;7.718;2023-08-01T04:55:31;1.23;;;0.60;;
3781;SDS011;6881;49.962;7.718;2023-08-01T04:57:56;0.80;;;0.50;;
3781;SDS011;6881;49.962;7.718;2023-08-01T05:00:22;1.53;;;0.53;;
3781;SDS011;6881;49.962;7.718;2023-08-01T05:02:47;1.33;;;0.60;;
3781;SDS011;6881;49.962;7.718;2023-08-01T05:05:12;0.83;;;0.47;;
3781;SDS011;6881;49.962;7.718;2023-08-01T05:07:37;1.20;;;0.70;;
3781;SDS011;6881;49.962;7.718;2023-08-01T05:10:03;1.00;;;0.63;;
3781;SDS011;6881;49.962;7.718;2023-08-01T05:12:28;1.17;;;0.50;;
3781;SDS011;6881;49.962;7.718;2023-08-01T05:14:54;2.27;;;0.70;;
3781;SDS011;6881;49.962;7.718;2023-08-01T05:17:19;0.80;;;0.40;;
3781;SDS011;6881;49.962;7.718;2023-08-01T05:19:45;1.20;;;0.50;;
3781;SDS011;6881;49.962;7.718;2023-08-01T05:22:10;0.80;;;0.40;;
3781;SDS011;6881;49.962;7.718;2023-08-01T05:24:35;0.70;;;0.30;;
3781;SDS011;6881;49.962;7.718;2023-08-01T05:27:01;1.70;;;0.43;;
3781;SDS011;6881;49.962;7.718;2023-08-01T05:29:26;0.80;;;0.50;;
3781;SDS011;6881;49.962;7.718;2023-08-01T05:31:51;1.10;;;0.57;;
3781;SDS011;6881;49.962;7.718;2023-08-01T05:34:17;1.00;;;0.50;;
3781;SDS011;6881;49.962;7.718;2023-08-01T05:36:42;1.07;;;0.60;;
3781;SDS011;6881;49.962;7.718;2023-08-01T05:39:07;0.90;;;0.40;;
3781;SDS011;6881;49.962;7.718;2023-08-01T05:41:33;2.20;;;0.50;;
3781;SDS011;6881;49.962;7.718;2023-08-01T05:43:58;2.10;;;0.50;;
3781;SDS011;6881;49.962;7.718;2023-08-01T05:46:23;0.80;;;0.40;;
3781;SDS011;6881;49.962;7.718;2023-08-01T05:48:49;1.50;;;0.37;;
3781;SDS011;6881;49.962;7.718;2023-08-01T05:51:14;0.70;;;0.20;;
3781;SDS011;6881;49.962;7.718;2023-08-01T05:53:39;0.70;;;0.30;;
3781;SDS011;6881;49.962;7.718;2023-08-01T05:56:05;0.70;;;0.27;;
3781;SDS011;6881;49.962;7.718;2023-08-01T05:58:30;0.90;;;0.37;;
3781;SDS011;6881;49.962;7.718;2023-08-01T06:00:56;0.80;;;0.30;;
3781;SDS011;6881;49.962;7.718;2023-08-01T06:03:21;0.60;;;0.30;;
3781;SDS011;6881;49.962;7.718;2023-08-01T06:05:46;0.70;;;0.30;;
3781;SDS011;6881;49.962;7.718;2023-08-01T06:08:12;1.00;;;0.33;;
3781;SDS011;6881;49.962;7.718;2023-08-01T06:10:38;0.70;;;0.33;;
3781;SDS011;6881;49.962;7.718;2023-08-01T06:13:03;0.70;;;0.40;;
3781;SDS011;6881;49.962;7.718;2023-08-01T06:15:29;0.70;;;0.40;;
3781;SDS011;6881;49.962;7.718;2023-08-01T06:17:54;0.70;;;0.30;;
3781;SDS011;6881;49.962;7.718;2023-08-01T06:20:19;0.80;;;0.40;;
3781;SDS011;6881;49.962;7.718;2023-08-01T06:22:45;0.80;;;0.33;;
3781;SDS011;6881;49.962;7.718;2023-08-01T06:25:10;0.90;;;0.50;;
3781;SDS011;6881;49.962;7.718;2023-08-01T06:27:36;0.87;;;0.40;;
3781;SDS011;6881;49.962;7.718;2023-08-01T06:30:02;2.23;;;0.50;;
3781;SDS011;6881;49.962;7.718;2023-08-01T06:32:27;1.53;;;0.40;;
3781;SDS011;6881;49.962;7.718;2023-08-01T06:34:53;6.03;;;0.60;;
3781;SDS011;6881;49.962;7.718;2023-08-01T06:37:18;1.87;;;0.63;;
3781;SDS011;6881;49.962;7.718;2023-08-01T06:39:43;1.43;;;0.70;;
3781;SDS011;6881;49.962;7.718;2023-08-01T06:42:09;0.90;;;0.50;;
3781;SDS011;6881;49.962;7.718;2023-08-01T06:44:34;1.80;;;0.70;;
3781;SDS011;6881;49.962;7.718;2023-08-01T06:46:59;1.20;;;0.50;;
3781;SDS011;6881;49.962;7.718;2023-08-01T06:49:25;0.70;;;0.50;;
3781;SDS011;6881;49.962;7.718;2023-08-01T06:51:50;0.90;;;0.50;;
3781;SDS011;6881;49.962;7.718;2023-08-01T06:54:15;1.07;;;0.50;;
3781;SDS011;6881;49.962;7.718;2023-08-01T06:56:41;1.00;;;0.50;;
3781;SDS011;6881;49.962;7.718;2023-08-01T06:59:12;1.20;;;1.00;;
3781;SDS011;6881;49.962;7.718;2023-08-01T07:01:38;1.70;;;0.40;;
3781;SDS011;6881;49.962;7.718;2023-08-01T07:04:05;1.10;;;0.40;;
3781;SDS011;6881;49.962;7.718;2023-08-01T07:06:31;1.27;;;0.70;;
3781;SDS011;6881;49.962;7.718;2023-08-01T07:08:56;3.40;;;0.87;;
3781;SDS011;6881;49.962;7.718;2023-08-01T07:11:22;3.27;;;0.50;;
3781;SDS011;6881;49.962;7.718;2023-08-01T07:13:48;1.10;;;0.60;;
3781;SDS011;6881;49.962;7.718;2023-08-01T07:16:13;1.07;;;0.80;;
3781;SDS011;6881;49.962;7.718;2023-08-01T07:18:38;4.30;;;1.00;;
3781;SDS011;6881;49.962;7.718;2023-08-01T07:21:04;1.40;;;1.00;;
3781;SDS011;6881;49.962;7.718;2023-08-01T07:23:30;1.67;;;1.00;;
3781;SDS011;6881;49.962;7.718;2023-08-01T07:25:56;2.77;;;1.30;;
3781;SDS011;6881;49.962;7.718;2023-08-01T07:28:21;1.30;;;0.97;;
3781;SDS011;6881;49.962;7.718;2023-08-01T07:30:46;2.97;;;1.13;;
3781;SDS011;6881;49.962;7.718;2023-08-01T07:33:12;1.80;;;1.30;;
3781;SDS011;6881;49.962;7.718;2023-08-01T07:35:37;2.00;;;1.07;;
3781;SDS011;6881;49.962;7.718;2023-08-01T07:38:02;2.50;;;0.80;;
3781;SDS011;6881;49.962;7.718;2023-08-01T07:40:28;1.50;;;1.13;;
3781;SDS011;6881;49.962;7.718;2023-08-01T07:42:53;1.70;;;1.17;;
3781;SDS011;6881;49.962;7.718;2023-08-01T07:45:18;1.43;;;0.90;;
3781;SDS011;6881;49.962;7.718;2023-08-01T07:47:44;2.07;;;1.00;;
3781;SDS011;6881;49.962;7.718;2023-08-01T07:50:10;3.00;;;1.07;;
3781;SDS011;6881;49.962;7.718;2023-08-01T07:52:35;2.80;;;0.97;;
3781;SDS011;6881;49.962;7.718;2023-08-01T07:55:01;1.50;;;0.80;;
3781;SDS011;6881;49.962;7.718;2023-08-01T07:57:26;1.97;;;0.90;;
3781;SDS011;6881;49.962;7.718;2023-08-01T07:59:51;1.30;;;0.87;;
3781;SDS011;6881;49.962;7.718;2023-08-01T08:02:17;2.50;;;1.27;;
3781;SDS011;6881;49.962;7.718;2023-08-01T08:04:42;2.20;;;1.43;;
3781;SDS011;6881;49.962;7.718;2023-08-01T08:07:07;2.60;;;1.40;;
3781;SDS011;6881;49.962;7.718;2023-08-01T08:09:32;1.97;;;1.37;;
3781;SDS011;6881;49.962;7.718;2023-08-01T08:11:58;3.00;;;1.50;;
3781;SDS011;6881;49.962;7.718;2023-08-01T08:14:23;1.50;;;1.20;;
3781;SDS011;6881;49.962;7.718;2023-08-01T08:16:49;1.63;;;1.33;;
3781;SDS011;6881;49.962;7.718;2023-08-01T08:19:14;1.70;;;1.37;;
3781;SDS011;6881;49.962;7.718;2023-08-01T08:21:40;2.13;;;1.43;;
3781;SDS011;6881;49.962;7.718;2023-08-01T08:24:05;2.63;;;1.70;;
3781;SDS011;6881;49.962;7.718;2023-08-01T08:26:31;3.70;;;1.50;;
3781;SDS011;6881;49.962;7.718;2023-08-01T08:28:58;2.60;;;1.50;;
3781;SDS011;6881;49.962;7.718;2023-08-01T08:31:24;7.80;;;2.00;;
3781;SDS011;6881;49.962;7.718;2023-08-01T08:33:49;1.43;;;1.17;;
3781;SDS011;6881;49.962;7.718;2023-08-01T08:36:15;1.47;;;1.33;;
3781;SDS011;6881;49.962;7.718;2023-08-01T08:38:40;2.80;;;1.77;;
3781;SDS011;6881;49.962;7.718;2023-08-01T08:43:32;2.50;;;1.50;;
3781;SDS011;6881;49.962;7.718;2023-08-01T08:45:59;2.10;;;1.50;;
3781;SDS011;6881;49.962;7.718;2023-08-01T08:48:25;2.80;;;1.60;;
3781;SDS011;6881;49.962;7.718;2023-08-01T08:50:50;1.70;;;1.33;;
3781;SDS011;6881;49.962;7.718;2023-08-01T08:53:17;2.73;;;1.33;;
3781;SDS011;6881;49.962;7.718;2023-08-01T08:55:43;2.40;;;1.40;;
3781;SDS011;6881;49.962;7.718;2023-08-01T08:58:08;3.53;;;2.00;;
3781;SDS011;6881;49.962;7.718;2023-08-01T09:00:35;2.20;;;1.70;;
3781;SDS011;6881;49.962;7.718;2023-08-01T09:03:00;3.30;;;1.70;;
3781;SDS011;6881;49.962;7.718;2023-08-01T09:05:27;5.40;;;1.80;;
3781;SDS011;6881;49.962;7.718;2023-08-01T09:07:54;2.70;;;1.60;;
3781;SDS011;6881;49.962;7.718;2023-08-01T09:10:21;2.23;;;1.47;;
3781;SDS011;6881;49.962;7.718;2023-08-01T09:12:47;2.60;;;1.57;;
3781;SDS011;6881;49.962;7.718;2023-08-01T09:15:12;2.00;;;1.50;;
3781;SDS011;6881;49.962;7.718;2023-08-01T09:17:51;2.83;;;1.70;;
3781;SDS011;6881;49.962;7.718;2023-08-01T09:20:17;2.57;;;1.57;;
3781;SDS011;6881;49.962;7.718;2023-08-01T09:22:43;3.13;;;1.60;;
3781;SDS011;6881;49.962;7.718;2023-08-01T09:25:09;2.20;;;1.50;;
3781;SDS011;6881;49.962;7.718;2023-08-01T09:27:35;2.83;;;1.47;;
3781;SDS011;6881;49.962;7.718;2023-08-01T09:30:07;4.27;;;1.90;;
3781;SDS011;6881;49.962;7.718;2023-08-01T09:32:34;2.17;;;1.83;;
3781;SDS011;6881;49.962;7.718;2023-08-01T09:34:59;2.67;;;1.80;;
3781;SDS011;6881;49.962;7.718;2023-08-01T09:37:25;2.77;;;2.20;;
3781;SDS011;6881;49.962;7.718;2023-08-01T09:39:54;2.10;;;1.70;;
3781;SDS011;6881;49.962;7.718;2023-08-01T09:42:20;4.90;;;2.57;;
3781;SDS011;6881;49.962;7.718;2023-08-01T09:44:45;5.20;;;1.73;;
3781;SDS011;6881;49.962;7.718;2023-08-01T09:47:11;3.90;;;1.90;;
3781;SDS011;6881;49.962;7.718;2023-08-01T09:49:46;2.90;;;1.80;;
3781;SDS011;6881;49.962;7.718;2023-08-01T09:52:12;3.40;;;1.70;;
3781;SDS011;6881;49.962;7.718;2023-08-01T09:54:38;3.30;;;2.20;;
3781;SDS011;6881;49.962;7.718;2023-08-01T09:57:04;1.97;;;1.77;;
3781;SDS011;6881;49.962;7.718;2023-08-01T09:59:31;3.50;;;2.10;;
3781;SDS011;6881;49.962;7.718;2023-08-01T10:01:57;5.93;;;2.00;;
3781;SDS011;6881;49.962;7.718;2023-08-01T10:04:24;4.23;;;1.73;;
3781;SDS011;6881;49.962;7.718;2023-08-01T10:06:53;2.60;;;1.40;;
3781;SDS011;6881;49.962;7.718;2023-08-01T10:09:20;2.43;;;1.83;;
3781;SDS011;6881;49.962;7.718;2023-08-01T10:11:46;3.27;;;2.43;;
3781;SDS011;6881;49.962;7.718;2023-08-01T10:14:12;9.20;;;2.23;;
3781;SDS011;6881;49.962;7.718;2023-08-01T10:16:37;3.03;;;1.83;;
3781;SDS011;6881;49.962;7.718;2023-08-01T10:19:04;3.83;;;2.00;;
3781;SDS011;6881;49.962;7.718;2023-08-01T10:21:31;2.70;;;2.03;;
3781;SDS011;6881;49.962;7.718;2023-08-01T10:23:56;2.77;;;1.97;;
3781;SDS011;6881;49.962;7.718;2023-08-01T10:26:23;3.00;;;2.10;;
3781;SDS011;6881;49.962;7.718;2023-08-01T10:28:49;2.20;;;1.63;;
3781;SDS011;6881;49.962;7.718;2023-08-01T10:31:17;3.40;;;2.10;;
3781;SDS011;6881;49.962;7.718;2023-08-01T10:33:43;3.50;;;2.07;;
3781;SDS011;6881;49.962;7.718;2023-08-01T10:36:16;2.60;;;1.47;;
3781;SDS011;6881;49.962;7.718;2023-08-01T10:38:46;2.90;;;1.90;;
3781;SDS011;6881;49.962;7.718;2023-08-01T10:41:24;2.53;;;1.90;;
3781;SDS011;6881;49.962;7.718;2023-08-01T10:43:49;2.90;;;2.10;;
3781;SDS011;6881;49.962;7.718;2023-08-01T10:46:15;3.20;;;2.07;;
3781;SDS011;6881;49.962;7.718;2023-08-01T10:48:50;3.17;;;2.23;;
3781;SDS011;6881;49.962;7.718;2023-08-01T10:51:17;3.67;;;2.03;;
3781;SDS011;6881;49.962;7.718;2023-08-01T10:53:42;3.90;;;2.00;;
3781;SDS011;6881;49.962;7.718;2023-08-01T10:56:08;4.13;;;2.20;;
3781;SDS011;6881;49.962;7.718;2023-08-01T10:58:34;6.00;;;2.00;;
3781;SDS011;6881;49.962;7.718;2023-08-01T11:00:59;2.30;;;1.70;;
3781;SDS011;6881;49.962;7.718;2023-08-01T11:03:37;3.10;;;1.90;;
3781;SDS011;6881;49.962;7.718;2023-08-01T11:06:03;6.60;;;2.60;;
3781;SDS011;6881;49.962;7.718;2023-08-01T11:08:39;4.20;;;2.50;;
3781;SDS011;6881;49.962;7.718;2023-08-01T11:11:05;3.50;;;2.47;;
3781;SDS011;6881;49.962;7.718;2023-08-01T11:13:32;2.63;;;2.00;;
3781;SDS011;6881;49.962;7.718;2023-08-01T11:16:00;3.43;;;2.17;;
3781;SDS011;6881;49.962;7.718;2023-08-01T11:18:27;8.07;;;3.40;;
3781;SDS011;6881;49.962;7.718;2023-08-01T11:20:52;2.90;;;2.03;;
3781;SDS011;6881;49.962;7.718;2023-08-01T11:23:17;4.13;;;2.60;;
3781;SDS011;6881;49.962;7.718;2023-08-01T11:25:43;4.27;;;1.50;;
3781;SDS011;6881;49.962;7.718;2023-08-01T11:28:11;4.00;;;2.07;;
3781;SDS011;6881;49.962;7.718;2023-08-01T11:30:40;2.27;;;1.90;;
3781;SDS011;6881;49.962;7.718;2023-08-01T11:33:27;2.90;;;1.63;;
3781;SDS011;6881;49.962;7.718;2023-08-01T11:35:52;3.70;;;2.13;;
3781;SDS011;6881;49.962;7.718;2023-08-01T11:38:19;2.43;;;1.87;;
3781;SDS011;6881;49.962;7.718;2023-08-01T11:40:45;2.97;;;2.03;;
3781;SDS011;6881;49.962;7.718;2023-08-01T11:43:13;3.93;;;2.00;;
3781;SDS011;6881;49.962;7.718;2023-08-01T11:45:47;2.50;;;1.80;;
3781;SDS011;6881;49.962;7.718;2023-08-01T11:48:13;3.07;;;2.37;;
3781;SDS011;6881;49.962;7.718;2023-08-01T11:50:39;1.97;;;1.73;;
3781;SDS011;6881;49.962;7.718;2023-08-01T11:53:04;2.77;;;1.70;;
3781;SDS011;6881;49.962;7.718;2023-08-01T11:55:29;3.17;;;2.13;;
3781;SDS011;6881;49.962;7.718;2023-08-01T11:57:59;4.67;;;2.10;;
3781;SDS011;6881;49.962;7.718;2023-08-01T12:00:25;3.30;;;2.00;;
3781;SDS011;6881;49.962;7.718;2023-08-01T12:03:02;2.67;;;1.47;;
3781;SDS011;6881;49.962;7.718;2023-08-01T12:05:28;2.97;;;2.57;;
3781;SDS011;6881;49.962;7.718;2023-08-01T12:07:54;2.63;;;2.23;;
3781;SDS011;6881;49.962;7.718;2023-08-01T12:10:19;4.53;;;2.00;;
3781;SDS011;6881;49.962;7.718;2023-08-01T12:12:45;4.80;;;2.30;;
3781;SDS011;6881;49.962;7.718;2023-08-01T12:15:14;2.63;;;1.60;;
3781;SDS011;6881;49.962;7.718;2023-08-01T12:17:40;2.00;;;1.60;;
3781;SDS011;6881;49.962;7.718;2023-08-01T12:20:06;3.60;;;1.80;;
3781;SDS011;6881;49.962;7.718;2023-08-01T12:22:31;5.20;;;1.97;;
3781;SDS011;6881;49.962;7.718;2023-08-01T12:24:57;3.07;;;1.93;;
3781;SDS011;6881;49.962;7.718;2023-08-01T12:27:22;2.47;;;1.80;;
3781;SDS011;6881;49.962;7.718;2023-08-01T12:29:48;3.40;;;2.07;;
3781;SDS011;6881;49.962;7.718;2023-08-01T12:32:13;2.73;;;1.50;;
3781;SDS011;6881;49.962;7.718;2023-08-01T12:34:39;2.03;;;1.77;;
3781;SDS011;6881;49.962;7.718;2023-08-01T12:37:04;3.10;;;1.90;;
3781;SDS011;6881;49.962;7.718;2023-08-01T12:39:30;3.10;;;1.37;;
3781;SDS011;6881;49.962;7.718;2023-08-01T12:41:55;3.50;;;1.80;;
3781;SDS011;6881;49.962;7.718;2023-08-01T12:44:20;2.43;;;1.90;;
3781;SDS011;6881;49.962;7.718;2023-08-01T12:46:46;2.83;;;2.00;;
3781;SDS011;6881;49.962;7.718;2023-08-01T12:49:11;2.70;;;1.80;;
3781;SDS011;6881;49.962;7.718;2023-08-01T12:51:37;5.67;;;1.90;;
3781;SDS011;6881;49.962;7.718;2023-08-01T12:54:02;3.13;;;2.30;;
3781;SDS011;6881;49.962;7.718;2023-08-01T12:56:28;3.20;;;1.97;;
3781;SDS011;6881;49.962;7.718;2023-08-01T12:58:53;2.03;;;1.50;;
3781;SDS011;6881;49.962;7.718;2023-08-01T13:01:18;5.43;;;2.07;;
3781;SDS011;6881;49.962;7.718;2023-08-01T13:03:44;3.10;;;2.10;;
3781;SDS011;6881;49.962;7.718;2023-08-01T13:06:12;2.47;;;2.13;;
3781;SDS011;6881;49.962;7.718;2023-08-01T13:08:38;6.00;;;2.13;;
3781;SDS011;6881;49.962;7.718;2023-08-01T13:11:09;3.30;;;1.87;;
3781;SDS011;6881;49.962;7.718;2023-08-01T13:13:38;4.10;;;2.60;;
3781;SDS011;6881;49.962;7.718;2023-08-01T13:16:03;4.67;;;2.10;;
3781;SDS011;6881;49.962;7.718;2023-08-01T13:18:29;3.37;;;1.73;;
3781;SDS011;6881;49.962;7.718;2023-08-01T13:20:56;3.60;;;2.60;;
3781;SDS011;6881;49.962;7.718;2023-08-01T13:23:22;3.60;;;1.90;;
3781;SDS011;6881;49.962;7.718;2023-08-01T13:25:48;6.13;;;2.57;;
3781;SDS011;6881;49.962;7.718;2023-08-01T13:28:14;3.60;;;2.10;;
3781;SDS011;6881;49.962;7.718;2023-08-01T13:30:39;3.40;;;2.40;;
3781;SDS011;6881;49.962;7.718;2023-08-01T13:33:04;4.17;;;3.00;;
3781;SDS011;6881;49.962;7.718;2023-08-01T13:35:29;4.70;;;2.60;;
3781;SDS011;6881;49.962;7.718;2023-08-01T13:37:55;2.93;;;2.17;;
3781;SDS011;6881;49.962;7.718;2023-08-01T13:40:20;4.27;;;2.37;;
3781;SDS011;6881;49.962;7.718;2023-08-01T13:42:45;3.83;;;2.50;;
3781;SDS011;6881;49.962;7.718;2023-08-01T13:45:11;3.80;;;2.43;;
3781;SDS011;6881;49.962;7.718;2023-08-01T13:47:36;7.40;;;3.10;;
3781;SDS011;6881;49.962;7.718;2023-08-01T13:50:01;6.47;;;2.80;;
3781;SDS011;6881;49.962;7.718;2023-08-01T13:52:27;2.37;;;2.17;;
3781;SDS011;6881;49.962;7.718;2023-08-01T13:54:52;5.73;;;2.60;;
3781;SDS011;6881;49.962;7.718;2023-08-01T13:57:17;4.30;;;2.43;;
3781;SDS011;6881;49.962;7.718;2023-08-01T13:59:42;7.13;;;2.60;;
3781;SDS011;6881;49.962;7.718;2023-08-01T14:02:08;2.53;;;2.10;;
3781;SDS011;6881;49.962;7.718;2023-08-01T14:04:33;5.13;;;2.70;;
3781;SDS011;6881;49.962;7.718;2023-08-01T14:06:58;3.30;;;2.17;;
3781;SDS011;6881;49.962;7.718;2023-08-01T14:09:24;4.30;;;2.37;;
3781;SDS011;6881;49.962;7.718;2023-08-01T14:11:49;4.67;;;2.13;;
3781;SDS011;6881;49.962;7.718;2023-08-01T14:14:14;2.73;;;2.07;;
3781;SDS011;6881;49.962;7.718;2023-08-01T14:16:40;9.13;;;2.33;;
3781;SDS011;6881;49.962;7.718;2023-08-01T14:19:05;3.50;;;2.60;;
3781;SDS011;6881;49.962;7.718;2023-08-01T14:21:31;7.90;;;2.10;;
3781;SDS011;6881;49.962;7.718;2023-08-01T14:23:58;7.33;;;2.37;;
3781;SDS011;6881;49.962;7.718;2023-08-01T14:26:23;2.73;;;2.23;;
3781;SDS011;6881;49.962;7.718;2023-08-01T14:28:49;3.80;;;2.40;;
3781;SDS011;6881;49.962;7.718;2023-08-01T14:31:15;4.23;;;2.87;;
3781;SDS011;6881;49.962;7.718;2023-08-01T14:33:40;4.43;;;2.10;;
3781;SDS011;6881;49.962;7.718;2023-08-01T14:36:09;2.90;;;2.10;;
3781;SDS011;6881;49.962;7.718;2023-08-01T14:38:37;2.20;;;1.70;;
3781;SDS011;6881;49.962;7.718;2023-08-01T14:41:02;4.63;;;2.00;;
3781;SDS011;6881;49.962;7.718;2023-08-01T14:43:27;4.33;;;2.00;;
3781;SDS011;6881;49.962;7.718;2023-08-01T14:45:53;3.50;;;2.07;;
3781;SDS011;6881;49.962;7.718;2023-08-01T14:48:18;3.53;;;2.10;;
3781;SDS011;6881;49.962;7.718;2023-08-01T14:50:45;2.70;;;1.80;;
3781;SDS011;6881;49.962;7.718;2023-08-01T14:53:10;2.70;;;2.03;;
3781;SDS011;6881;49.962;7.718;2023-08-01T14:55:36;2.80;;;1.67;;
3781;SDS011;6881;49.962;7.718;2023-08-01T14:58:01;3.80;;;1.30;;
3781;SDS011;6881;49.962;7.718;2023-08-01T15:00:26;2.27;;;1.60;;
3781;SDS011;6881;49.962;7.718;2023-08-01T15:02:52;1.93;;;1.50;;
3781;SDS011;6881;49.962;7.718;2023-08-01T15:05:17;2.23;;;1.30;;
3781;SDS011;6881;49.962;7.718;2023-08-01T15:07:43;3.10;;;1.83;;
3781;SDS011;6881;49.962;7.718;2023-08-01T15:10:08;2.50;;;1.30;;